sensor_id;sensor_type;location;lat;lon;timestamp;P1;durP1;ratioP1;P2;durP2;ratioP2
5774;SDS011;2913;51.120;6.772;2022-07-29T00:01:05;14.85;;;2.63;;
5774;SDS011;2913;51.120;6.772;2022-07-29T00:03:30;10.20;;;2.88;;
5774;SDS011;2913;51.120;6.772;2022-07-29T00:05:56;17.55;;;2.90;;
5774;SDS011;2913;51.120;6.772;2022-07-29T00:08:26;21.02;;;2.67;;
5774;SDS011;2913;51.120;6.772;2022-07-29T00:10:52;19.65;;;3.00;;
5774;SDS011;2913;51.120;6.772;2022-07-29T00:13:18;18.83;;;2.72;;
5774;SDS011;2913;51.120;6.772;2022-07-29T00:15:48;14.68;;;3.10;;
5774;SDS011;2913;51.120;6.772;2022-07-29T00:18:14;13.80;;;3.05;;
5774;SDS011;2913;51.120;6.772;2022-07-29T00:20:39;14.60;;;2.70;;
5774;SDS011;2913;51.120;6.772;2022-07-29T00:23:05;11.73;;;2.60;;
5774;SDS011;2913;51.120;6.772;2022-07-29T00:25:36;14.55;;;3.00;;
5774;SDS011;2913;51.120;6.772;2022-07-29T00:28:01;16.27;;;3.08;;
5774;SDS011;2913;51.120;6.772;2022-07-29T00:30:27;25.90;;;2.70;;
5774;SDS011;2913;51.120;6.772;2022-07-29T00:32:55;19.13;;;2.75;;
5774;SDS011;2913;51.120;6.772;2022-07-29T00:35:21;17.50;;;3.22;;
5774;SDS011;2913;51.120;6.772;2022-07-29T00:38:05;14.02;;;3.03;;
5774;SDS011;2913;51.120;6.772;2022-07-29T00:40:33;10.75;;;2.75;;
5774;SDS011;2913;51.120;6.772;2022-07-29T00:42:59;11.35;;;2.75;;
5774;SDS011;2913;51.120;6.772;2022-07-29T00:45:24;9.80;;;2.80;;
5774;SDS011;2913;51.120;6.772;2022-07-29T00:47:50;18.38;;;3.25;;
5774;SDS011;2913;51.120;6.772;2022-07-29T00:50:16;9.75;;;2.40;;
5774;SDS011;2913;51.120;6.772;2022-07-29T00:52:45;7.75;;;2.60;;
5774;SDS011;2913;51.120;6.772;2022-07-29T00:55:12;13.13;;;2.80;;
5774;SDS011;2913;51.120;6.772;2022-07-29T00:57:42;14.48;;;3.00;;
5774;SDS011;2913;51.120;6.772;2022-07-29T01:00:12;11.82;;;2.63;;
5774;SDS011;2913;51.120;6.772;2022-07-29T01:02:43;13.60;;;2.63;;
5774;SDS011;2913;51.120;6.772;2022-07-29T01:05:13;18.75;;;2.80;;
5774;SDS011;2913;51.120;6.772;2022-07-29T01:07:40;20.15;;;3.05;;
5774;SDS011;2913;51.120;6.772;2022-07-29T01:10:07;14.23;;;2.83;;
5774;SDS011;2913;51.120;6.772;2022-07-29T01:12:38;14.05;;;2.65;;
5774;SDS011;2913;51.120;6.772;2022-07-29T01:15:07;13.07;;;2.92;;
5774;SDS011;2913;51.120;6.772;2022-07-29T01:26:03;8.73;;;2.70;;
5774;SDS011;2913;51.120;6.772;2022-07-29T01:31:25;6.97;;;2.67;;
5774;SDS011;2913;51.120;6.772;2022-07-29T01:34:01;8.68;;;2.67;;
5774;SDS011;2913;51.120;6.772;2022-07-29T01:39:11;15.07;;;3.13;;
5774;SDS011;2913;51.120;6.772;2022-07-29T01:47:57;10.80;;;3.20;;
5774;SDS011;2913;51.120;6.772;2022-07-29T01:50:30;6.75;;;2.80;;
5774;SDS011;2913;51.120;6.772;2022-07-29T01:53:09;7.53;;;2.63;;
5774;SDS011;2913;51.120;6.772;2022-07-29T01:55:41;17.50;;;3.00;;
5774;SDS011;2913;51.120;6.772;2022-07-29T01:58:10;14.27;;;3.13;;
5774;SDS011;2913;51.120;6.772;2022-07-29T02:00:37;11.18;;;3.10;;
5774;SDS011;2913;51.120;6.772;2022-07-29T02:03:05;16.65;;;3.47;;
5774;SDS011;2913;51.120;6.772;2022-07-29T02:05:35;12.90;;;2.88;;
5774;SDS011;2913;51.120;6.772;2022-07-29T02:08:04;10.25;;;2.92;;
5774;SDS011;2913;51.120;6.772;2022-07-29T02:10:33;14.98;;;3.33;;
5774;SDS011;2913;51.120;6.772;2022-07-29T02:13:01;8.25;;;2.90;;
5774;SDS011;2913;51.120;6.772;2022-07-29T02:15:28;18.83;;;3.08;;
5774;SDS011;2913;51.120;6.772;2022-07-29T02:18:02;11.15;;;2.90;;
5774;SDS011;2913;51.120;6.772;2022-07-29T02:20:32;20.52;;;3.13;;
5774;SDS011;2913;51.120;6.772;2022-07-29T02:22:59;17.90;;;3.13;;
5774;SDS011;2913;51.120;6.772;2022-07-29T02:25:27;10.57;;;2.95;;
5774;SDS011;2913;51.120;6.772;2022-07-29T02:27:56;11.45;;;2.90;;
5774;SDS011;2913;51.120;6.772;2022-07-29T02:30:25;10.98;;;3.15;;
5774;SDS011;2913;51.120;6.772;2022-07-29T02:32:52;16.63;;;3.53;;
5774;SDS011;2913;51.120;6.772;2022-07-29T02:35:19;9.85;;;3.33;;
5774;SDS011;2913;51.120;6.772;2022-07-29T02:37:46;13.18;;;3.47;;
5774;SDS011;2913;51.120;6.772;2022-07-29T02:40:34;14.07;;;4.07;;
5774;SDS011;2913;51.120;6.772;2022-07-29T02:43:05;14.88;;;3.20;;
5774;SDS011;2913;51.120;6.772;2022-07-29T02:45:32;11.23;;;3.00;;
5774;SDS011;2913;51.120;6.772;2022-07-29T02:47:59;7.15;;;2.42;;
5774;SDS011;2913;51.120;6.772;2022-07-29T02:50:31;17.15;;;2.78;;
5774;SDS011;2913;51.120;6.772;2022-07-29T02:55:40;14.63;;;3.30;;
5774;SDS011;2913;51.120;6.772;2022-07-29T02:58:29;20.27;;;3.47;;
5774;SDS011;2913;51.120;6.772;2022-07-29T03:01:02;14.35;;;3.72;;
5774;SDS011;2913;51.120;6.772;2022-07-29T03:03:34;17.20;;;3.78;;
5774;SDS011;2913;51.120;6.772;2022-07-29T03:06:03;14.55;;;4.00;;
5774;SDS011;2913;51.120;6.772;2022-07-29T03:08:31;12.93;;;3.75;;
5774;SDS011;2913;51.120;6.772;2022-07-29T03:10:57;15.05;;;4.57;;
5774;SDS011;2913;51.120;6.772;2022-07-29T03:13:24;12.25;;;4.45;;
5774;SDS011;2913;51.120;6.772;2022-07-29T03:15:50;17.05;;;3.75;;
5774;SDS011;2913;51.120;6.772;2022-07-29T03:18:17;18.98;;;4.00;;
5774;SDS011;2913;51.120;6.772;2022-07-29T03:20:45;16.17;;;4.35;;
5774;SDS011;2913;51.120;6.772;2022-07-29T03:23:11;19.08;;;4.50;;
5774;SDS011;2913;51.120;6.772;2022-07-29T03:25:36;18.10;;;4.30;;
5774;SDS011;2913;51.120;6.772;2022-07-29T03:28:02;18.35;;;5.38;;
5774;SDS011;2913;51.120;6.772;2022-07-29T03:30:28;15.30;;;4.10;;
5774;SDS011;2913;51.120;6.772;2022-07-29T03:32:56;22.52;;;3.90;;
5774;SDS011;2913;51.120;6.772;2022-07-29T03:35:23;12.27;;;4.20;;
5774;SDS011;2913;51.120;6.772;2022-07-29T03:37:49;8.30;;;3.70;;
5774;SDS011;2913;51.120;6.772;2022-07-29T03:40:22;17.30;;;3.67;;
5774;SDS011;2913;51.120;6.772;2022-07-29T03:42:54;11.00;;;3.20;;
5774;SDS011;2913;51.120;6.772;2022-07-29T03:45:24;11.18;;;3.67;;
5774;SDS011;2913;51.120;6.772;2022-07-29T03:47:53;19.15;;;4.10;;
5774;SDS011;2913;51.120;6.772;2022-07-29T03:50:21;17.05;;;3.88;;
5774;SDS011;2913;51.120;6.772;2022-07-29T03:52:47;11.02;;;3.67;;
5774;SDS011;2913;51.120;6.772;2022-07-29T03:55:16;13.88;;;4.05;;
5774;SDS011;2913;51.120;6.772;2022-07-29T03:57:43;13.50;;;3.53;;
5774;SDS011;2913;51.120;6.772;2022-07-29T04:00:10;12.27;;;3.22;;
5774;SDS011;2913;51.120;6.772;2022-07-29T04:02:36;18.85;;;4.35;;
5774;SDS011;2913;51.120;6.772;2022-07-29T04:05:07;19.02;;;5.95;;
5774;SDS011;2913;51.120;6.772;2022-07-29T04:07:46;22.63;;;7.65;;
5774;SDS011;2913;51.120;6.772;2022-07-29T04:10:15;25.98;;;7.90;;
5774;SDS011;2913;51.120;6.772;2022-07-29T04:12:43;20.63;;;7.03;;
5774;SDS011;2913;51.120;6.772;2022-07-29T04:15:10;9.63;;;4.10;;
5774;SDS011;2913;51.120;6.772;2022-07-29T04:17:36;14.45;;;4.03;;
5774;SDS011;2913;51.120;6.772;2022-07-29T04:20:02;15.63;;;4.13;;
5774;SDS011;2913;51.120;6.772;2022-07-29T04:22:29;15.75;;;3.80;;
5774;SDS011;2913;51.120;6.772;2022-07-29T04:24:57;13.35;;;4.68;;
5774;SDS011;2913;51.120;6.772;2022-07-29T04:27:22;18.63;;;5.57;;
5774;SDS011;2913;51.120;6.772;2022-07-29T04:29:48;26.63;;;8.73;;
5774;SDS011;2913;51.120;6.772;2022-07-29T04:32:14;36.88;;;9.02;;
5774;SDS011;2913;51.120;6.772;2022-07-29T04:34:40;24.00;;;8.00;;
5774;SDS011;2913;51.120;6.772;2022-07-29T04:37:08;12.48;;;5.90;;
5774;SDS011;2913;51.120;6.772;2022-07-29T04:39:33;38.90;;;8.65;;
5774;SDS011;2913;51.120;6.772;2022-07-29T04:41:59;31.27;;;10.60;;
5774;SDS011;2913;51.120;6.772;2022-07-29T04:44:24;32.25;;;8.57;;
5774;SDS011;2913;51.120;6.772;2022-07-29T04:46:53;24.67;;;7.72;;
5774;SDS011;2913;51.120;6.772;2022-07-29T04:49:19;36.38;;;12.38;;
5774;SDS011;2913;51.120;6.772;2022-07-29T04:51:44;39.03;;;11.38;;
5774;SDS011;2913;51.120;6.772;2022-07-29T04:54:10;34.67;;;11.32;;
5774;SDS011;2913;51.120;6.772;2022-07-29T04:56:35;38.28;;;10.82;;
5774;SDS011;2913;51.120;6.772;2022-07-29T04:59:01;25.65;;;10.13;;
5774;SDS011;2913;51.120;6.772;2022-07-29T05:01:29;31.83;;;9.07;;
5774;SDS011;2913;51.120;6.772;2022-07-29T05:03:54;20.52;;;8.13;;
5774;SDS011;2913;51.120;6.772;2022-07-29T05:06:20;28.08;;;8.52;;
5774;SDS011;2913;51.120;6.772;2022-07-29T05:08:48;28.63;;;8.70;;
5774;SDS011;2913;51.120;6.772;2022-07-29T05:11:16;24.50;;;7.90;;
5774;SDS011;2913;51.120;6.772;2022-07-29T05:13:42;19.25;;;5.90;;
5774;SDS011;2913;51.120;6.772;2022-07-29T05:16:10;19.05;;;5.05;;
5774;SDS011;2913;51.120;6.772;2022-07-29T05:18:38;19.83;;;4.22;;
5774;SDS011;2913;51.120;6.772;2022-07-29T05:21:04;13.45;;;5.03;;
5774;SDS011;2913;51.120;6.772;2022-07-29T05:23:32;16.73;;;5.30;;
5774;SDS011;2913;51.120;6.772;2022-07-29T05:25:58;17.75;;;4.60;;
5774;SDS011;2913;51.120;6.772;2022-07-29T05:28:23;19.42;;;4.95;;
5774;SDS011;2913;51.120;6.772;2022-07-29T05:30:49;13.40;;;4.80;;
5774;SDS011;2913;51.120;6.772;2022-07-29T05:33:17;19.02;;;5.05;;
5774;SDS011;2913;51.120;6.772;2022-07-29T05:35:42;14.65;;;4.88;;
5774;SDS011;2913;51.120;6.772;2022-07-29T05:38:13;22.75;;;4.57;;
5774;SDS011;2913;51.120;6.772;2022-07-29T05:40:38;17.55;;;4.82;;
5774;SDS011;2913;51.120;6.772;2022-07-29T05:43:04;11.90;;;4.28;;
5774;SDS011;2913;51.120;6.772;2022-07-29T05:45:31;21.23;;;4.70;;
5774;SDS011;2913;51.120;6.772;2022-07-29T05:47:57;11.57;;;4.50;;
5774;SDS011;2913;51.120;6.772;2022-07-29T05:50:23;17.90;;;4.85;;
5774;SDS011;2913;51.120;6.772;2022-07-29T05:52:49;15.95;;;4.53;;
5774;SDS011;2913;51.120;6.772;2022-07-29T05:55:17;21.58;;;5.20;;
5774;SDS011;2913;51.120;6.772;2022-07-29T05:57:43;18.38;;;5.15;;
5774;SDS011;2913;51.120;6.772;2022-07-29T06:00:10;17.08;;;5.00;;
5774;SDS011;2913;51.120;6.772;2022-07-29T06:02:36;20.77;;;5.70;;
5774;SDS011;2913;51.120;6.772;2022-07-29T06:05:07;18.95;;;4.90;;
5774;SDS011;2913;51.120;6.772;2022-07-29T06:07:32;21.15;;;5.30;;
5774;SDS011;2913;51.120;6.772;2022-07-29T06:09:59;19.65;;;5.50;;
5774;SDS011;2913;51.120;6.772;2022-07-29T06:12:24;11.90;;;4.35;;
5774;SDS011;2913;51.120;6.772;2022-07-29T06:14:50;17.02;;;4.68;;
5774;SDS011;2913;51.120;6.772;2022-07-29T06:17:18;21.13;;;4.78;;
5774;SDS011;2913;51.120;6.772;2022-07-29T06:19:44;18.48;;;5.15;;
5774;SDS011;2913;51.120;6.772;2022-07-29T06:22:12;14.65;;;5.22;;
5774;SDS011;2913;51.120;6.772;2022-07-29T06:24:42;23.92;;;5.68;;
5774;SDS011;2913;51.120;6.772;2022-07-29T06:27:09;17.13;;;5.05;;
5774;SDS011;2913;51.120;6.772;2022-07-29T06:29:35;16.67;;;4.85;;
5774;SDS011;2913;51.120;6.772;2022-07-29T06:32:01;20.27;;;5.70;;
5774;SDS011;2913;51.120;6.772;2022-07-29T06:34:27;21.55;;;5.47;;
5774;SDS011;2913;51.120;6.772;2022-07-29T06:36:53;12.32;;;4.97;;
5774;SDS011;2913;51.120;6.772;2022-07-29T06:39:19;26.15;;;5.57;;
5774;SDS011;2913;51.120;6.772;2022-07-29T06:41:48;19.58;;;6.28;;
5774;SDS011;2913;51.120;6.772;2022-07-29T06:44:17;20.88;;;6.20;;
5774;SDS011;2913;51.120;6.772;2022-07-29T06:46:43;17.58;;;6.30;;
5774;SDS011;2913;51.120;6.772;2022-07-29T06:49:09;27.63;;;6.30;;
5774;SDS011;2913;51.120;6.772;2022-07-29T06:51:35;21.35;;;6.43;;
5774;SDS011;2913;51.120;6.772;2022-07-29T06:54:01;16.88;;;6.68;;
5774;SDS011;2913;51.120;6.772;2022-07-29T06:56:30;19.00;;;6.10;;
5774;SDS011;2913;51.120;6.772;2022-07-29T06:59:02;18.15;;;6.68;;
5774;SDS011;2913;51.120;6.772;2022-07-29T07:01:30;19.27;;;6.75;;
5774;SDS011;2913;51.120;6.772;2022-07-29T07:03:55;22.98;;;6.25;;
5774;SDS011;2913;51.120;6.772;2022-07-29T07:06:21;18.67;;;6.63;;
5774;SDS011;2913;51.120;6.772;2022-07-29T07:08:47;32.83;;;7.78;;
5774;SDS011;2913;51.120;6.772;2022-07-29T07:11:15;21.90;;;6.90;;
5774;SDS011;2913;51.120;6.772;2022-07-29T07:13:40;21.83;;;6.97;;
5774;SDS011;2913;51.120;6.772;2022-07-29T07:16:06;20.83;;;7.75;;
5774;SDS011;2913;51.120;6.772;2022-07-29T07:18:31;21.55;;;7.57;;
5774;SDS011;2913;51.120;6.772;2022-07-29T07:20:58;21.17;;;8.02;;
5774;SDS011;2913;51.120;6.772;2022-07-29T07:23:24;16.35;;;7.25;;
5774;SDS011;2913;51.120;6.772;2022-07-29T07:25:50;31.95;;;7.80;;
5774;SDS011;2913;51.120;6.772;2022-07-29T07:28:16;21.92;;;7.63;;
5774;SDS011;2913;51.120;6.772;2022-07-29T07:30:44;16.80;;;8.00;;
5774;SDS011;2913;51.120;6.772;2022-07-29T07:33:10;18.80;;;6.68;;
5774;SDS011;2913;51.120;6.772;2022-07-29T07:35:36;26.48;;;7.95;;
5774;SDS011;2913;51.120;6.772;2022-07-29T07:38:01;21.27;;;7.80;;
5774;SDS011;2913;51.120;6.772;2022-07-29T07:40:27;19.75;;;8.57;;
5774;SDS011;2913;51.120;6.772;2022-07-29T07:42:55;28.02;;;8.77;;
5774;SDS011;2913;51.120;6.772;2022-07-29T07:45:21;33.03;;;10.32;;
5774;SDS011;2913;51.120;6.772;2022-07-29T07:47:47;32.53;;;9.98;;
5774;SDS011;2913;51.120;6.772;2022-07-29T07:50:17;31.05;;;11.10;;
5774;SDS011;2913;51.120;6.772;2022-07-29T07:52:46;25.15;;;9.40;;
5774;SDS011;2913;51.120;6.772;2022-07-29T07:55:13;30.85;;;8.52;;
5774;SDS011;2913;51.120;6.772;2022-07-29T07:57:41;24.92;;;8.50;;
5774;SDS011;2913;51.120;6.772;2022-07-29T08:00:07;25.15;;;9.07;;
5774;SDS011;2913;51.120;6.772;2022-07-29T08:02:34;36.45;;;10.40;;
5774;SDS011;2913;51.120;6.772;2022-07-29T08:04:59;24.88;;;9.82;;
5774;SDS011;2913;51.120;6.772;2022-07-29T08:07:25;27.60;;;10.45;;
5774;SDS011;2913;51.120;6.772;2022-07-29T08:09:51;44.03;;;21.70;;
5774;SDS011;2913;51.120;6.772;2022-07-29T08:12:16;32.13;;;13.07;;
5774;SDS011;2913;51.120;6.772;2022-07-29T08:14:42;27.67;;;9.52;;
5774;SDS011;2913;51.120;6.772;2022-07-29T08:17:07;30.77;;;9.05;;
5774;SDS011;2913;51.120;6.772;2022-07-29T08:19:33;34.75;;;9.85;;
5774;SDS011;2913;51.120;6.772;2022-07-29T08:21:59;30.92;;;10.73;;
5774;SDS011;2913;51.120;6.772;2022-07-29T08:24:27;38.83;;;10.50;;
5774;SDS011;2913;51.120;6.772;2022-07-29T08:27:08;33.25;;;9.95;;
5774;SDS011;2913;51.120;6.772;2022-07-29T08:29:38;29.58;;;10.20;;
5774;SDS011;2913;51.120;6.772;2022-07-29T08:32:04;30.63;;;10.20;;
5774;SDS011;2913;51.120;6.772;2022-07-29T08:34:33;34.75;;;11.10;;
5774;SDS011;2913;51.120;6.772;2022-07-29T08:36:58;32.47;;;10.07;;
5774;SDS011;2913;51.120;6.772;2022-07-29T08:39:24;37.05;;;10.38;;
5774;SDS011;2913;51.120;6.772;2022-07-29T08:41:50;32.75;;;9.75;;
5774;SDS011;2913;51.120;6.772;2022-07-29T08:44:17;23.70;;;9.25;;
5774;SDS011;2913;51.120;6.772;2022-07-29T08:46:43;38.60;;;8.98;;
5774;SDS011;2913;51.120;6.772;2022-07-29T08:49:11;20.13;;;9.15;;
5774;SDS011;2913;51.120;6.772;2022-07-29T08:51:39;22.27;;;8.70;;
5774;SDS011;2913;51.120;6.772;2022-07-29T08:54:09;26.17;;;8.15;;
5774;SDS011;2913;51.120;6.772;2022-07-29T08:56:35;26.00;;;8.43;;
5774;SDS011;2913;51.120;6.772;2022-07-29T08:59:05;21.80;;;8.50;;
5774;SDS011;2913;51.120;6.772;2022-07-29T09:01:36;22.23;;;8.63;;
5774;SDS011;2913;51.120;6.772;2022-07-29T09:04:05;22.83;;;8.48;;
5774;SDS011;2913;51.120;6.772;2022-07-29T09:06:38;25.83;;;9.00;;
5774;SDS011;2913;51.120;6.772;2022-07-29T09:09:07;26.30;;;7.50;;
5774;SDS011;2913;51.120;6.772;2022-07-29T09:11:33;24.83;;;9.13;;
5774;SDS011;2913;51.120;6.772;2022-07-29T09:13:59;27.02;;;9.57;;
5774;SDS011;2913;51.120;6.772;2022-07-29T09:16:25;21.90;;;10.80;;
5774;SDS011;2913;51.120;6.772;2022-07-29T09:18:50;24.33;;;10.90;;
5774;SDS011;2913;51.120;6.772;2022-07-29T09:21:18;29.13;;;9.93;;
5774;SDS011;2913;51.120;6.772;2022-07-29T09:24:06;29.13;;;10.38;;
5774;SDS011;2913;51.120;6.772;2022-07-29T09:26:35;26.30;;;11.05;;
5774;SDS011;2913;51.120;6.772;2022-07-29T09:29:12;32.15;;;11.63;;
5774;SDS011;2913;51.120;6.772;2022-07-29T09:31:43;37.85;;;11.43;;
5774;SDS011;2913;51.120;6.772;2022-07-29T09:34:13;29.08;;;11.35;;
5774;SDS011;2913;51.120;6.772;2022-07-29T09:36:41;31.40;;;11.07;;
5774;SDS011;2913;51.120;6.772;2022-07-29T09:39:11;25.35;;;10.82;;
5774;SDS011;2913;51.120;6.772;2022-07-29T09:41:49;28.25;;;11.60;;
5774;SDS011;2913;51.120;6.772;2022-07-29T09:44:20;29.70;;;12.55;;
5774;SDS011;2913;51.120;6.772;2022-07-29T09:49:23;33.25;;;13.30;;
5774;SDS011;2913;51.120;6.772;2022-07-29T09:52:03;30.23;;;13.85;;
5774;SDS011;2913;51.120;6.772;2022-07-29T09:54:35;33.88;;;13.65;;
5774;SDS011;2913;51.120;6.772;2022-07-29T09:57:02;48.65;;;13.90;;
5774;SDS011;2913;51.120;6.772;2022-07-29T09:59:33;44.08;;;13.60;;
5774;SDS011;2913;51.120;6.772;2022-07-29T10:01:59;40.67;;;13.90;;
5774;SDS011;2913;51.120;6.772;2022-07-29T10:04:38;35.35;;;13.77;;
5774;SDS011;2913;51.120;6.772;2022-07-29T10:07:06;30.10;;;13.57;;
5774;SDS011;2913;51.120;6.772;2022-07-29T10:09:35;32.70;;;13.32;;
5774;SDS011;2913;51.120;6.772;2022-07-29T10:14:38;29.45;;;12.35;;
5774;SDS011;2913;51.120;6.772;2022-07-29T10:17:05;27.50;;;11.32;;
5774;SDS011;2913;51.120;6.772;2022-07-29T10:19:32;42.67;;;12.15;;
5774;SDS011;2913;51.120;6.772;2022-07-29T10:21:58;24.33;;;10.80;;
5774;SDS011;2913;51.120;6.772;2022-07-29T10:24:28;33.08;;;10.43;;
5774;SDS011;2913;51.120;6.772;2022-07-29T10:26:58;30.63;;;10.10;;
5774;SDS011;2913;51.120;6.772;2022-07-29T10:29:26;18.92;;;8.85;;
5774;SDS011;2913;51.120;6.772;2022-07-29T10:35:06;26.80;;;10.10;;
5774;SDS011;2913;51.120;6.772;2022-07-29T10:43:45;35.10;;;11.32;;
5774;SDS011;2913;51.120;6.772;2022-07-29T10:46:15;27.52;;;10.25;;
5774;SDS011;2913;51.120;6.772;2022-07-29T10:57:29;19.25;;;6.88;;
5774;SDS011;2913;51.120;6.772;2022-07-29T11:05:05;23.33;;;6.35;;
5774;SDS011;2913;51.120;6.772;2022-07-29T11:07:32;19.15;;;6.38;;
5774;SDS011;2913;51.120;6.772;2022-07-29T11:15:03;12.13;;;4.70;;
5774;SDS011;2913;51.120;6.772;2022-07-29T11:20:41;18.15;;;4.57;;
5774;SDS011;2913;51.120;6.772;2022-07-29T11:23:20;23.48;;;4.95;;
5774;SDS011;2913;51.120;6.772;2022-07-29T11:31:13;19.70;;;4.80;;
5774;SDS011;2913;51.120;6.772;2022-07-29T11:33:46;14.93;;;4.10;;
5774;SDS011;2913;51.120;6.772;2022-07-29T11:36:12;13.30;;;4.90;;
5774;SDS011;2913;51.120;6.772;2022-07-29T11:38:41;18.70;;;4.18;;
5774;SDS011;2913;51.120;6.772;2022-07-29T11:41:22;16.20;;;4.05;;
5774;SDS011;2913;51.120;6.772;2022-07-29T11:43:56;14.10;;;4.47;;
5774;SDS011;2913;51.120;6.772;2022-07-29T11:49:09;25.67;;;6.00;;
5774;SDS011;2913;51.120;6.772;2022-07-29T11:51:38;27.15;;;5.50;;
5774;SDS011;2913;51.120;6.772;2022-07-29T11:54:04;15.60;;;4.43;;
5774;SDS011;2913;51.120;6.772;2022-07-29T11:56:33;15.23;;;4.20;;
5774;SDS011;2913;51.120;6.772;2022-07-29T11:59:05;17.08;;;4.50;;
5774;SDS011;2913;51.120;6.772;2022-07-29T12:01:34;11.07;;;4.05;;
5774;SDS011;2913;51.120;6.772;2022-07-29T12:04:06;15.05;;;4.25;;
5774;SDS011;2913;51.120;6.772;2022-07-29T12:06:36;11.13;;;3.75;;
5774;SDS011;2913;51.120;6.772;2022-07-29T12:09:07;19.35;;;4.63;;
5774;SDS011;2913;51.120;6.772;2022-07-29T12:11:33;12.77;;;4.70;;
5774;SDS011;2913;51.120;6.772;2022-07-29T12:13:59;22.58;;;5.07;;
5774;SDS011;2913;51.120;6.772;2022-07-29T12:16:36;19.88;;;5.07;;
5774;SDS011;2913;51.120;6.772;2022-07-29T12:19:04;19.27;;;5.82;;
5774;SDS011;2913;51.120;6.772;2022-07-29T12:24:15;25.60;;;7.10;;
5774;SDS011;2913;51.120;6.772;2022-07-29T12:26:56;29.35;;;8.43;;
5774;SDS011;2913;51.120;6.772;2022-07-29T12:29:23;26.17;;;7.35;;
5774;SDS011;2913;51.120;6.772;2022-07-29T12:31:52;24.30;;;7.82;;
5774;SDS011;2913;51.120;6.772;2022-07-29T12:34:19;25.60;;;7.93;;
5774;SDS011;2913;51.120;6.772;2022-07-29T12:36:47;31.75;;;7.80;;
5774;SDS011;2913;51.120;6.772;2022-07-29T12:39:18;22.90;;;8.75;;
5774;SDS011;2913;51.120;6.772;2022-07-29T12:41:44;29.98;;;8.45;;
5774;SDS011;2913;51.120;6.772;2022-07-29T12:44:10;21.33;;;8.00;;
5774;SDS011;2913;51.120;6.772;2022-07-29T12:46:36;22.98;;;7.95;;
5774;SDS011;2913;51.120;6.772;2022-07-29T12:49:04;26.90;;;9.07;;
5774;SDS011;2913;51.120;6.772;2022-07-29T12:51:34;28.77;;;8.18;;
5774;SDS011;2913;51.120;6.772;2022-07-29T12:56:41;33.83;;;9.15;;
5774;SDS011;2913;51.120;6.772;2022-07-29T13:01:44;22.45;;;8.23;;
5774;SDS011;2913;51.120;6.772;2022-07-29T13:04:23;33.78;;;7.30;;
5774;SDS011;2913;51.120;6.772;2022-07-29T13:06:57;30.90;;;6.72;;
5774;SDS011;2913;51.120;6.772;2022-07-29T13:09:39;23.27;;;7.47;;
5774;SDS011;2913;51.120;6.772;2022-07-29T13:12:11;18.02;;;6.60;;
5774;SDS011;2913;51.120;6.772;2022-07-29T13:17:08;25.58;;;7.50;;
5774;SDS011;2913;51.120;6.772;2022-07-29T13:22:09;23.05;;;7.00;;
5774;SDS011;2913;51.120;6.772;2022-07-29T13:27:34;32.95;;;8.05;;
5774;SDS011;2913;51.120;6.772;2022-07-29T13:30:02;28.48;;;7.93;;
5774;SDS011;2913;51.120;6.772;2022-07-29T13:32:30;27.30;;;7.90;;
5774;SDS011;2913;51.120;6.772;2022-07-29T13:34:56;27.85;;;7.60;;
5774;SDS011;2913;51.120;6.772;2022-07-29T13:37:24;27.60;;;8.07;;
5774;SDS011;2913;51.120;6.772;2022-07-29T13:39:51;18.67;;;7.95;;
5774;SDS011;2913;51.120;6.772;2022-07-29T13:42:23;26.05;;;7.38;;
5774;SDS011;2913;51.120;6.772;2022-07-29T13:44:52;20.55;;;6.43;;
5774;SDS011;2913;51.120;6.772;2022-07-29T13:47:22;22.23;;;6.22;;
5774;SDS011;2913;51.120;6.772;2022-07-29T13:49:47;18.05;;;5.82;;
5774;SDS011;2913;51.120;6.772;2022-07-29T13:52:13;19.75;;;6.22;;
5774;SDS011;2913;51.120;6.772;2022-07-29T13:54:40;13.10;;;5.68;;
5774;SDS011;2913;51.120;6.772;2022-07-29T13:57:06;19.73;;;5.82;;
5774;SDS011;2913;51.120;6.772;2022-07-29T13:59:32;22.23;;;6.10;;
5774;SDS011;2913;51.120;6.772;2022-07-29T14:02:00;24.95;;;6.07;;
5774;SDS011;2913;51.120;6.772;2022-07-29T14:04:28;19.75;;;7.07;;
5774;SDS011;2913;51.120;6.772;2022-07-29T14:06:59;13.98;;;6.43;;
5774;SDS011;2913;51.120;6.772;2022-07-29T14:09:24;23.17;;;5.88;;
5774;SDS011;2913;51.120;6.772;2022-07-29T14:11:50;23.60;;;6.22;;
5774;SDS011;2913;51.120;6.772;2022-07-29T14:14:17;26.88;;;5.55;;
5774;SDS011;2913;51.120;6.772;2022-07-29T14:16:43;21.50;;;6.07;;
5774;SDS011;2913;51.120;6.772;2022-07-29T14:19:11;16.92;;;5.95;;
5774;SDS011;2913;51.120;6.772;2022-07-29T14:21:37;14.70;;;5.97;;
5774;SDS011;2913;51.120;6.772;2022-07-29T14:24:04;17.08;;;5.18;;
5774;SDS011;2913;51.120;6.772;2022-07-29T14:26:31;18.13;;;6.10;;
5774;SDS011;2913;51.120;6.772;2022-07-29T14:28:56;13.55;;;4.95;;
5774;SDS011;2913;51.120;6.772;2022-07-29T14:31:24;17.55;;;5.40;;
5774;SDS011;2913;51.120;6.772;2022-07-29T14:33:50;19.58;;;4.95;;
5774;SDS011;2913;51.120;6.772;2022-07-29T14:36:15;16.55;;;5.00;;
5774;SDS011;2913;51.120;6.772;2022-07-29T14:38:41;12.60;;;5.05;;
5774;SDS011;2913;51.120;6.772;2022-07-29T14:41:07;15.00;;;4.90;;
5774;SDS011;2913;51.120;6.772;2022-07-29T14:43:33;23.58;;;5.70;;
5774;SDS011;2913;51.120;6.772;2022-07-29T14:46:01;19.40;;;4.72;;
5774;SDS011;2913;51.120;6.772;2022-07-29T14:48:27;16.90;;;5.97;;
5774;SDS011;2913;51.120;6.772;2022-07-29T14:50:52;18.02;;;5.20;;
5774;SDS011;2913;51.120;6.772;2022-07-29T14:53:19;12.93;;;5.05;;
5774;SDS011;2913;51.120;6.772;2022-07-29T14:55:45;10.52;;;4.57;;
5774;SDS011;2913;51.120;6.772;2022-07-29T14:58:15;17.75;;;4.60;;
5774;SDS011;2913;51.120;6.772;2022-07-29T15:00:44;13.02;;;4.57;;
5774;SDS011;2913;51.120;6.772;2022-07-29T15:03:10;21.05;;;4.30;;
5774;SDS011;2913;51.120;6.772;2022-07-29T15:05:35;16.00;;;4.45;;
5774;SDS011;2913;51.120;6.772;2022-07-29T15:08:04;10.02;;;4.18;;
5774;SDS011;2913;51.120;6.772;2022-07-29T15:10:29;14.70;;;4.25;;
5774;SDS011;2913;51.120;6.772;2022-07-29T15:12:57;13.20;;;4.05;;
5774;SDS011;2913;51.120;6.772;2022-07-29T15:15:23;16.00;;;4.55;;
5774;SDS011;2913;51.120;6.772;2022-07-29T15:17:49;10.32;;;4.03;;
5774;SDS011;2913;51.120;6.772;2022-07-29T15:20:17;15.85;;;3.95;;
5774;SDS011;2913;51.120;6.772;2022-07-29T15:22:43;12.65;;;3.88;;
5774;SDS011;2913;51.120;6.772;2022-07-29T15:25:08;13.18;;;3.60;;
5774;SDS011;2913;51.120;6.772;2022-07-29T15:27:37;11.93;;;3.97;;
5774;SDS011;2913;51.120;6.772;2022-07-29T15:30:02;12.55;;;4.15;;
5774;SDS011;2913;51.120;6.772;2022-07-29T15:32:28;15.30;;;4.15;;
5774;SDS011;2913;51.120;6.772;2022-07-29T15:34:54;15.35;;;3.47;;
5774;SDS011;2913;51.120;6.772;2022-07-29T15:37:20;14.57;;;3.85;;
5774;SDS011;2913;51.120;6.772;2022-07-29T15:39:45;21.95;;;4.05;;
5774;SDS011;2913;51.120;6.772;2022-07-29T15:42:11;13.25;;;3.85;;
5774;SDS011;2913;51.120;6.772;2022-07-29T15:44:41;8.50;;;3.45;;
5774;SDS011;2913;51.120;6.772;2022-07-29T15:47:09;10.43;;;3.42;;
5774;SDS011;2913;51.120;6.772;2022-07-29T15:49:38;16.52;;;3.40;;
5774;SDS011;2913;51.120;6.772;2022-07-29T15:52:06;17.30;;;3.97;;
5774;SDS011;2913;51.120;6.772;2022-07-29T15:54:35;12.65;;;3.60;;
5774;SDS011;2913;51.120;6.772;2022-07-29T15:57:03;10.68;;;3.30;;
5774;SDS011;2913;51.120;6.772;2022-07-29T15:59:32;12.18;;;3.58;;
5774;SDS011;2913;51.120;6.772;2022-07-29T16:01:58;11.70;;;3.55;;
5774;SDS011;2913;51.120;6.772;2022-07-29T16:04:24;9.70;;;3.50;;
5774;SDS011;2913;51.120;6.772;2022-07-29T16:06:50;13.30;;;3.75;;
5774;SDS011;2913;51.120;6.772;2022-07-29T16:09:16;10.32;;;3.42;;
5774;SDS011;2913;51.120;6.772;2022-07-29T16:11:43;13.23;;;3.97;;
5774;SDS011;2913;51.120;6.772;2022-07-29T16:14:15;16.95;;;3.88;;
5774;SDS011;2913;51.120;6.772;2022-07-29T16:16:43;15.35;;;3.95;;
5774;SDS011;2913;51.120;6.772;2022-07-29T16:19:10;20.73;;;3.75;;
5774;SDS011;2913;51.120;6.772;2022-07-29T16:21:38;12.02;;;3.83;;
5774;SDS011;2913;51.120;6.772;2022-07-29T16:24:06;15.70;;;4.35;;
5774;SDS011;2913;51.120;6.772;2022-07-29T16:26:33;11.10;;;4.03;;
5774;SDS011;2913;51.120;6.772;2022-07-29T16:28:59;12.10;;;3.25;;